Time;durP1;ratioP1;P1;durP2;ratioP2;P2;SDS_P1;SDS_P2;PMS_P1;PMS_P2;Temp;Humidity;BMP_temperature;BMP_pressure;BME280_temperature;BME280_humidity;BME280_pressure;Samples;Min_cycle;Max_cycle;Signal;HPM_P1;HPM_P2
2022/08/23 00:01:19;;;;;;;;;3.25;3.25;;;;;22.25;58.15;100561.59;5077660;27;45832;-71
2022/08/23 00:03:46;;;;;;;;;2.50;2.50;;;;;22.24;58.54;100562.56;5077475;27;45326;-71
2022/08/23 00:06:11;;;;;;;;;2.00;2.00;;;;;22.21;58.56;100554.81;5077731;27;45264;-72
2022/08/23 00:08:37;;;;;;;;;2.00;2.00;;;;;22.18;58.67;100553.25;5077652;27;45419;-72
2022/08/23 00:11:03;;;;;;;;;3.00;3.00;;;;;22.17;58.83;100556.91;5077548;27;45558;-72
2022/08/23 00:13:30;;;;;;;;;3.00;3.00;;;;;22.15;58.77;100558.88;5077051;27;45315;-70
2022/08/23 00:15:56;;;;;;;;;2.00;2.00;;;;;22.12;58.78;100559.16;5077359;27;45374;-71
2022/08/23 00:18:23;;;;;;;;;2.50;2.50;;;;;22.10;58.89;100553.09;5077425;27;45263;-72
2022/08/23 00:20:49;;;;;;;;;2.00;2.00;;;;;22.08;59.05;100563.94;5076998;27;46553;-69
2022/08/23 00:23:14;;;;;;;;;3.00;3.00;;;;;22.08;59.19;100566.63;5076691;27;45471;-71
2022/08/23 00:25:40;;;;;;;;;2.25;2.25;;;;;22.06;59.20;100567.75;5077262;27;45320;-70
2022/08/23 00:28:05;;;;;;;;;1.00;1.00;;;;;22.04;59.24;100559.84;5077490;27;45360;-69
2022/08/23 00:30:30;;;;;;;;;2.00;2.00;;;;;22.02;59.28;100549.25;5076841;27;46083;-71
2022/08/23 00:32:56;;;;;;;;;1.75;1.75;;;;;22.01;59.50;100552.94;5076599;27;45271;-71
2022/08/23 00:35:22;;;;;;;;;0.75;0.75;;;;;22.00;59.84;100548.56;5077003;27;45313;-70
2022/08/23 00:37:48;;;;;;;;;1.00;1.00;;;;;22.02;59.83;100549.25;5077119;27;45405;-71
2022/08/23 00:40:16;;;;;;;;;1.00;1.00;;;;;22.04;59.36;100549.16;5076533;27;46973;-70
2022/08/23 00:48:46;;;;;;;;;2.25;2.25;;;;;22.14;59.56;100543.78;5076932;28;45261;-71
2022/08/23 00:51:17;;;;;;;;;1.25;1.25;;;;;22.17;59.76;100547.06;5076243;27;46591;-71
2022/08/23 00:53:48;;;;;;;;;1.50;1.50;;;;;22.20;59.56;100537.88;5076498;27;45258;-71
2022/08/23 00:56:18;;;;;;;;;2.00;2.00;;;;;22.21;59.39;100547.59;5076434;28;45323;-70
2022/08/23 00:58:45;;;;;;;;;5.50;5.50;;;;;22.24;59.27;100546.50;5076723;27;45390;-71
2022/08/23 01:01:12;;;;;;;;;1.75;1.75;;;;;22.23;59.26;100536.75;5074621;27;47158;-71
2022/08/23 01:03:41;;;;;;;;;2.00;2.00;;;;;22.25;59.68;100549.03;5076736;27;45442;-72
2022/08/23 01:06:10;;;;;;;;;2.00;2.00;;;;;22.24;59.56;100550.00;5076753;27;45332;-71
2022/08/23 01:08:38;;;;;;;;;1.50;1.50;;;;;22.23;59.58;100548.31;5076129;27;45274;-70
2022/08/23 01:11:25;;;;;;;;;1.25;1.25;;;;;22.22;59.70;100548.47;5076142;27;45396;-72
2022/08/23 01:13:59;;;;;;;;;2.00;2.00;;;;;22.22;59.54;100557.34;5075947;27;45384;-71
2022/08/23 01:16:32;;;;;;;;;1.75;1.50;;;;;22.20;59.57;100556.63;5076028;27;45379;-71
2022/08/23 01:18:59;;;;;;;;;1.75;1.75;;;;;22.17;59.76;100556.91;5076134;27;45448;-72
2022/08/23 01:21:30;;;;;;;;;1.00;1.00;;;;;22.17;59.94;100554.22;5075889;27;45344;-71
2022/08/23 01:23:59;;;;;;;;;2.00;2.00;;;;;22.13;60.06;100552.81;5075823;27;45377;-71
2022/08/23 01:26:26;;;;;;;;;2.00;2.00;;;;;22.11;60.02;100558.31;5075998;27;45390;-72
2022/08/23 01:28:53;;;;;;;;;1.25;1.25;;;;;22.09;60.36;100556.75;5076184;27;45213;-71
2022/08/23 01:31:21;;;;;;;;;2.00;2.00;;;;;22.03;60.14;100550.97;5075887;27;46226;-70
2022/08/23 01:33:52;;;;;;;;;2.00;2.00;;;;;22.06;60.28;100562.38;5075747;27;45354;-71
2022/08/23 01:36:18;;;;;;;;;1.00;1.00;;;;;22.02;60.41;100545.75;5074228;27;45351;-71
2022/08/23 01:38:44;;;;;;;;;2.00;2.00;;;;;22.06;60.40;100557.03;5076178;27;45401;-71
2022/08/23 01:41:09;;;;;;;;;3.00;3.00;;;;;22.04;60.41;100549.97;5076192;27;46576;-71
2022/08/23 01:43:35;;;;;;;;;2.00;2.00;;;;;22.08;60.62;100549.69;5074699;27;45463;-73
2022/08/23 01:46:17;;;;;;;;;2.75;2.75;;;;;22.09;60.52;100551.41;5076177;27;45370;-71
2022/08/23 01:48:45;;;;;;;;;2.00;2.00;;;;;22.10;60.58;100553.09;5076304;27;45523;-71
2022/08/23 01:51:11;;;;;;;;;2.00;2.00;;;;;22.09;60.85;100556.75;5076120;27;45233;-71
2022/08/23 01:53:36;;;;;;;;;2.50;2.50;;;;;22.10;60.85;100558.44;5074374;27;45338;-70
2022/08/23 01:56:04;;;;;;;;;3.25;3.25;;;;;22.09;60.83;100556.75;5075683;27;45483;-71
2022/08/23 01:58:31;;;;;;;;;3.75;3.75;;;;;22.07;60.72;100559.59;5075810;27;45584;-72
2022/08/23 02:00:57;;;;;;;;;3.00;3.00;;;;;22.06;60.82;100555.22;5075277;27;45243;-71
2022/08/23 02:03:23;;;;;;;;;2.00;2.00;;;;;22.01;60.92;100550.25;5075400;27;45320;-72
2022/08/23 02:05:48;;;;;;;;;2.00;2.00;;;;;21.99;60.92;100551.38;5075458;27;45365;-72
2022/08/23 02:10:58;;;;;;;;;2.00;2.00;;;;;21.94;61.05;100559.81;5075543;27;45377;-71
2022/08/23 02:13:23;;;;;;;;;1.75;1.75;;;;;21.91;61.15;100564.63;5075239;27;45491;-72
2022/08/23 02:15:50;;;;;;;;;1.25;1.25;;;;;21.86;61.36;100563.19;5075406;27;45443;-72
2022/08/23 02:18:20;;;;;;;;;3.00;3.00;;;;;21.82;61.44;100560.91;5075620;27;45408;-71
2022/08/23 02:20:48;;;;;;;;;2.50;2.50;;;;;21.82;61.61;100560.91;5074122;27;45565;-70
2022/08/23 02:23:15;;;;;;;;;3.00;3.00;;;;;21.78;61.64;100564.84;5074987;27;45450;-72
2022/08/23 02:25:40;;;;;;;;;2.00;2.00;;;;;21.74;62.07;100565.13;5075546;27;45433;-72
2022/08/23 02:28:06;;;;;;;;;3.00;3.00;;;;;21.70;61.70;100566.38;5073817;27;45299;-70
2022/08/23 02:30:32;;;;;;;;;2.00;2.00;;;;;21.70;62.10;100568.19;5075217;27;45321;-71
2022/08/23 02:32:57;;;;;;;;;1.00;1.00;;;;;21.67;62.08;100569.31;5075173;28;45277;-71
2022/08/23 02:35:23;;;;;;;;;0.75;0.75;;;;;21.69;62.20;100578.06;5074174;28;45398;-72
2022/08/23 02:37:49;;;;;;;;;0.75;0.75;;;;;21.69;62.12;100571.84;5075276;27;45382;-72
2022/08/23 02:40:15;;;;;;;;;1.00;1.00;;;;;21.70;62.38;100571.72;5074916;27;46310;-71
2022/08/23 02:42:41;;;;;;;;;1.00;1.00;;;;;21.71;62.17;100572.56;5075317;27;45363;-71
2022/08/23 02:45:07;;;;;;;;;1.00;1.00;;;;;21.73;62.26;100573.25;5073758;27;45266;-71
2022/08/23 02:47:35;;;;;;;;;1.75;1.75;;;;;21.74;62.14;100573.16;5073487;28;45608;-71
2022/08/23 02:50:03;;;;;;;;;1.25;1.25;;;;;21.74;62.40;100575.00;5074659;27;47140;-71
2022/08/23 02:52:28;;;;;;;;;0.00;0.00;;;;;21.77;62.37;100573.84;5073367;28;45627;-71
2022/08/23 02:54:53;;;;;;;;;0.25;0.25;;;;;21.73;62.58;100571.44;5075023;27;45372;-72
2022/08/23 02:57:19;;;;;;;;;1.25;1.25;;;;;21.76;62.36;100562.31;5074997;27;45322;-71
2022/08/23 02:59:44;;;;;;;;;0.75;0.75;;;;;21.79;62.39;100571.88;5074903;27;45280;-72
2022/08/23 03:02:10;;;;;;;;;1.00;1.00;;;;;21.80;62.41;100574.44;5074857;28;45285;-72
2022/08/23 03:04:35;;;;;;;;;0.25;0.25;;;;;21.82;62.51;100576.97;5073523;27;45298;-71
2022/08/23 03:07:00;;;;;;;;;0.50;0.50;;;;;21.73;62.49;100551.84;5075012;27;45521;-73
2022/08/23 03:09:26;;;;;;;;;0.00;0.00;;;;;21.83;62.60;100578.66;5074657;27;48679;-71
2022/08/23 03:11:51;;;;;;;;;1.00;1.00;;;;;21.84;62.21;100572.31;5074495;27;45180;-71
2022/08/23 03:14:17;;;;;;;;;0.75;0.75;;;;;21.83;62.39;100568.81;5074455;27;45279;-71
2022/08/23 03:16:42;;;;;;;;;1.00;1.00;;;;;21.84;61.99;100569.66;5075304;27;45533;-72
2022/08/23 03:19:08;;;;;;;;;1.00;1.00;;;;;21.89;62.65;100572.78;5072927;27;46246;-71
2022/08/23 03:21:33;;;;;;;;;0.25;0.25;;;;;21.91;62.50;100580.69;5074396;27;45309;-72
2022/08/23 03:23:59;;;;;;;;;1.00;1.00;;;;;21.93;62.41;100574.19;5073116;27;45512;-73
2022/08/23 03:26:24;;;;;;;;;1.00;1.00;;;;;21.95;62.21;100576.75;5074722;27;45480;-72
2022/08/23 03:28:50;;;;;;;;;1.00;1.00;;;;;21.97;62.16;100580.13;5074177;27;46157;-70
2022/08/23 03:31:15;;;;;;;;;1.25;1.25;;;;;21.96;62.43;100576.59;5074786;27;45346;-71
2022/08/23 03:33:41;;;;;;;;;1.00;1.00;;;;;21.96;62.51;100579.28;5078253;27;45362;-70
2022/08/23 03:36:09;;;;;;;;;0.75;0.75;;;;;21.96;62.19;100575.75;5078103;27;45409;-72
2022/08/23 03:38:35;;;;;;;;;0.00;0.00;;;;;21.95;62.22;100577.56;5077784;27;46353;-70
2022/08/23 03:41:01;;;;;;;;;1.00;1.00;;;;;21.91;62.46;100576.16;5076334;27;45475;-71
2022/08/23 03:43:27;;;;;;;;;1.75;1.75;;;;;21.91;62.28;100580.69;5078683;27;45324;-71
2022/08/23 03:45:52;;;;;;;;;6.50;6.50;;;;;21.85;62.54;100579.38;5078746;27;45149;-71
2022/08/23 03:48:17;;;;;;;;;2.00;2.00;;;;;21.83;62.45;100584.03;5078103;27;46231;-71
2022/08/23 03:50:44;;;;;;;;;0.00;0.00;;;;;21.78;62.32;100578.22;5078155;27;45187;-70
2022/08/23 03:53:09;;;;;;;;;1.00;1.00;;;;;21.78;62.56;100589.78;5077776;27;45410;-71
2022/08/23 03:55:35;;;;;;;;;2.00;2.00;;;;;21.76;63.03;100588.22;5077806;27;45488;-71
2022/08/23 03:58:00;;;;;;;;;6.75;6.75;;;;;21.72;62.74;100593.84;5077116;27;45516;-71
2022/08/23 04:00:26;;;;;;;;;3.50;3.50;;;;;21.71;63.01;100600.19;5077446;27;45267;-72
2022/08/23 04:02:51;;;;;;;;;2.00;2.00;;;;;21.69;63.17;100603.97;5078247;27;45291;-72
2022/08/23 04:05:17;;;;;;;;;1.50;1.50;;;;;21.68;63.04;100600.44;5076789;27;45790;-72
2022/08/23 04:07:42;;;;;;;;;2.00;2.00;;;;;21.65;63.28;100606.06;5078463;27;45408;-72
2022/08/23 04:10:08;;;;;;;;;2.00;2.00;;;;;21.62;62.96;100603.63;5077899;27;45358;-72
2022/08/23 04:12:34;;;;;;;;;1.00;1.00;;;;;21.70;63.37;100611.88;5077637;27;45200;-72
2022/08/23 04:15:00;;;;;;;;;1.00;1.00;;;;;21.69;63.28;100617.34;5077470;28;45303;-71
2022/08/23 04:17:26;;;;;;;;;0.50;0.50;;;;;21.72;63.02;100623.28;5078346;27;46351;-71
2022/08/23 04:19:51;;;;;;;;;1.25;1.25;;;;;21.71;62.95;100626.94;5078625;27;45276;-72
2022/08/23 04:22:18;;;;;;;;;0.50;0.50;;;;;21.71;63.34;100628.75;5078221;27;45205;-73
2022/08/23 04:24:44;;;;;;;;;0.50;0.50;;;;;21.70;63.25;100624.41;5078566;27;45507;-72
2022/08/23 04:27:11;;;;;;;;;1.00;1.00;;;;;21.71;63.29;100632.31;5077314;27;45900;-73
2022/08/23 04:29:38;;;;;;;;;1.00;1.00;;;;;21.72;63.29;100631.31;5077208;27;45294;-71
2022/08/23 04:32:05;;;;;;;;;1.00;1.00;;;;;21.73;63.42;100622.31;5077400;27;45345;-73
2022/08/23 04:34:32;;;;;;;;;1.00;1.00;;;;;21.76;63.27;100631.91;5077483;27;45405;-70
2022/08/23 04:36:58;;;;;;;;;2.00;2.00;;;;;21.76;63.36;100623.88;5076731;27;45423;-71
2022/08/23 04:39:23;;;;;;;;;1.00;1.00;;;;;21.81;63.10;100632.38;5076752;27;45291;-70
2022/08/23 04:44:33;;;;;;;;;2.00;2.00;;;;;21.86;63.05;100634.63;5075718;28;45219;-72
2022/08/23 04:46:58;;;;;;;;;1.00;1.00;;;;;21.86;62.92;100630.13;5076550;27;47268;-71
2022/08/23 04:49:24;;;;;;;;;0.25;0.25;;;;;21.84;63.08;100633.91;5076952;27;45295;-71
2022/08/23 04:51:49;;;;;;;;;1.00;1.00;;;;;21.85;63.02;100646.31;5077146;27;45602;-71
2022/08/23 04:54:15;;;;;;;;;0.75;0.75;;;;;21.85;63.18;100649.00;5077513;27;45734;-71
2022/08/23 04:56:41;;;;;;;;;0.50;0.50;;;;;21.84;63.22;100649.97;5076653;27;46083;-71
2022/08/23 04:59:07;;;;;;;;;5.00;5.00;;;;;21.82;63.05;100643.91;5076626;27;45384;-71
2022/08/23 05:01:33;;;;;;;;;2.75;2.75;;;;;21.80;63.86;100644.06;5075008;27;45394;-71
2022/08/23 05:03:59;;;;;;;;;3.25;3.25;;;;;21.83;63.72;100648.28;5076521;27;45482;-72
2022/08/23 05:06:25;;;;;;;;;5.00;5.00;;;;;21.81;64.01;100650.25;5076107;27;45237;-71
2022/08/23 05:08:51;;;;;;;;;2.50;2.50;;;;;21.80;63.92;100660.13;5076241;27;45333;-71
2022/08/23 05:11:17;;;;;;;;;3.00;3.00;;;;;21.77;63.92;100656.84;5076617;27;45330;-71
2022/08/23 05:13:43;;;;;;;;;20.50;19.00;;;;;21.73;64.12;100654.44;5076179;27;45583;-71
2022/08/23 05:16:09;;;;;;;;;5.50;5.50;;;;;21.67;64.24;100646.06;5075711;27;46115;-71
2022/08/23 05:18:34;;;;;;;;;3.50;3.50;;;;;21.68;64.15;100653.13;5075930;28;45539;-71
2022/08/23 05:21:00;;;;;;;;;2.50;2.50;;;;;21.68;64.70;100653.13;5075915;27;45341;-71
2022/08/23 05:23:26;;;;;;;;;3.75;3.75;;;;;21.67;64.37;100654.97;5076112;27;45421;-71
2022/08/23 05:25:54;;;;;;;;;4.00;4.00;;;;;21.65;63.98;100650.72;5076356;27;45321;-72
2022/08/23 05:28:26;;;;;;;;;4.50;4.50;;;;;21.61;64.63;100658.13;5076557;27;45330;-71
2022/08/23 05:31:00;;;;;;;;;4.25;4.25;;;;;21.62;64.35;100658.97;5076207;27;45367;-73
2022/08/23 05:33:27;;;;;;;;;5.00;5.00;;;;;21.60;64.46;100659.13;5076016;27;45411;-72
2022/08/23 05:35:53;;;;;;;;;3.00;3.00;;;;;21.61;64.58;100666.16;5075627;27;45428;-71
2022/08/23 05:38:19;;;;;;;;;6.00;6.00;;;;;21.58;64.49;100663.75;5076356;27;45260;-72
2022/08/23 05:40:47;;;;;;;;;9.75;9.75;;;;;21.58;64.56;100661.09;5075819;27;45317;-71
2022/08/23 05:43:13;;;;;;;;;4.75;4.75;;;;;21.60;65.18;100664.47;5074216;27;45515;-71
2022/08/23 05:45:38;;;;;;;;;5.75;5.75;;;;;21.59;64.66;100666.28;5075338;27;45552;-70
2022/08/23 05:48:03;;;;;;;;;4.25;4.25;;;;;21.58;64.43;100669.09;5075664;27;45349;-72
2022/08/23 05:50:29;;;;;;;;;4.00;4.00;;;;;21.56;64.58;100669.22;5075733;27;45311;-71
2022/08/23 05:52:54;;;;;;;;;4.00;4.00;;;;;21.56;64.31;100666.56;5075555;27;45591;-72
2022/08/23 05:55:21;;;;;;;;;5.75;5.75;;;;;21.54;64.41;100662.31;5075424;27;46442;-72
2022/08/23 05:57:46;;;;;;;;;5.00;5.00;;;;;21.53;64.61;100661.47;5075598;27;45446;-72
2022/08/23 06:00:14;;;;;;;;;5.25;5.25;;;;;21.53;64.58;100669.50;5075525;27;45375;-71
2022/08/23 06:02:39;;;;;;;;;4.00;4.00;;;;;21.53;64.60;100671.34;5075978;27;45358;-71
2022/08/23 06:05:05;;;;;;;;;5.00;5.00;;;;;21.51;64.47;100674.13;5075315;27;45223;-72
2022/08/23 06:07:33;;;;;;;;;13.50;13.50;;;;;21.49;64.74;100672.56;5074913;28;45255;-71
2022/08/23 06:09:58;;;;;;;;;6.50;6.50;;;;;21.51;65.11;100676.81;5074196;28;45754;-71
2022/08/23 06:12:24;;;;;;;;;5.50;5.50;;;;;21.51;64.99;100674.13;5075527;27;45503;-72
2022/08/23 06:14:49;;;;;;;;;7.00;7.00;;;;;21.52;64.92;100677.66;5073773;27;47206;-71
2022/08/23 06:17:15;;;;;;;;;4.50;4.50;;;;;21.57;64.90;100683.47;5075097;28;45419;-70
2022/08/23 06:19:40;;;;;;;;;6.25;6.25;;;;;21.58;64.79;100682.50;5075249;27;45382;-72
2022/08/23 06:22:05;;;;;;;;;5.00;5.00;;;;;21.64;64.48;100676.66;5075521;27;45547;-71
2022/08/23 06:24:31;;;;;;;;;5.00;5.00;;;;;21.66;64.55;100677.38;5075332;27;45929;-73
2022/08/23 06:26:56;;;;;;;;;8.00;8.00;;;;;21.71;64.22;100683.16;5073765;27;45428;-73
2022/08/23 06:29:22;;;;;;;;;7.75;7.75;;;;;21.74;64.58;100690.94;5075715;27;45389;-72
2022/08/23 06:31:50;;;;;;;;;8.50;8.25;;;;;21.79;64.23;100695.03;5075597;27;45357;-71
2022/08/23 06:34:16;;;;;;;;;9.00;9.00;;;;;21.84;64.42;100692.81;5074877;27;46486;-72
2022/08/23 06:36:41;;;;;;;;;9.00;9.00;;;;;21.91;64.65;100693.16;5074767;27;45219;-71
2022/08/23 06:39:09;;;;;;;;;4.75;4.75;;;;;21.96;64.21;100696.28;5075624;27;45392;-73
2022/08/23 06:41:35;;;;;;;;;6.25;6.25;;;;;22.01;63.75;100689.50;5075912;27;45523;-72
2022/08/23 06:44:01;;;;;;;;;8.00;8.00;;;;;22.07;63.96;100690.81;5074878;27;46282;-72
2022/08/23 06:46:28;;;;;;;;;8.50;8.50;;;;;22.09;63.63;100690.69;5075276;27;45344;-72
2022/08/23 06:48:54;;;;;;;;;7.75;7.75;;;;;22.18;63.51;100697.91;5075391;27;45433;-71
2022/08/23 06:51:29;;;;;;;;;10.00;10.00;;;;;22.22;63.58;100691.28;5074829;27;45270;-71
2022/08/23 06:53:57;;;;;;;;;10.00;10.00;;;;;22.30;63.14;100702.22;5074801;27;45275;-71
2022/08/23 06:56:24;;;;;;;;;14.75;14.75;;;;;22.36;63.09;100705.31;5074244;27;45256;-71
2022/08/23 06:58:51;;;;;;;;;11.00;11.00;;;;;22.41;63.31;100695.06;5074657;27;45452;-71
2022/08/23 07:01:49;;;;;;;;;16.50;16.50;;;;;22.47;62.75;100698.03;5074842;27;45506;-70
2022/08/23 07:04:29;;;;;;;;;9.75;9.75;;;;;22.55;62.90;100702.72;5074442;27;45290;-71
2022/08/23 07:06:56;;;;;;;;;7.00;7.00;;;;;22.61;62.34;100693.28;5074075;27;45310;-70
2022/08/23 07:09:22;;;;;;;;;8.25;8.25;;;;;22.71;62.38;100701.34;5074699;27;45417;-71
2022/08/23 07:11:48;;;;;;;;;9.75;9.75;;;;;22.77;62.35;100706.16;5074339;27;45475;-71
2022/08/23 07:14:16;;;;;;;;;9.75;9.75;;;;;22.88;61.80;100703.34;5072322;27;48311;-71
2022/08/23 07:16:46;;;;;;;;;8.25;8.25;;;;;23.01;61.87;100710.28;5074074;27;45298;-71
2022/08/23 07:19:13;;;;;;;;;13.25;13.25;;;;;23.10;61.73;100714.81;5073769;27;45476;-70
2022/08/23 07:21:39;;;;;;;;;7.75;7.75;;;;;23.13;61.61;100711.84;5074361;27;45363;-70
2022/08/23 07:24:05;;;;;;;;;7.00;7.00;;;;;23.16;61.46;100711.56;5072584;28;45460;-70
2022/08/23 07:26:31;;;;;;;;;8.50;8.50;;;;;23.20;61.29;100715.66;5074221;28;45400;-71
2022/08/23 07:28:56;;;;;;;;;7.25;7.25;;;;;23.27;60.68;100721.34;5074743;27;45299;-71
2022/08/23 07:31:29;;;;;;;;;7.00;7.00;;;;;23.24;61.17;100716.25;5073238;27;45252;-71
2022/08/23 07:33:57;;;;;;;;;8.25;8.25;;;;;23.42;60.67;100726.28;5074407;27;45321;-72
2022/08/23 07:36:25;;;;;;;;;7.00;7.00;;;;;23.60;60.50;100727.25;5074091;27;45785;-71
2022/08/23 07:38:50;;;;;;;;;8.00;8.00;;;;;23.82;60.07;100732.44;5073970;27;45472;-70
2022/08/23 07:41:19;;;;;;;;;7.00;7.00;;;;;24.02;59.81;100725.22;5073905;27;45564;-70
2022/08/23 07:43:45;;;;;;;;;9.25;9.25;;;;;24.32;59.76;100726.78;5073524;28;46263;-71
2022/08/23 07:46:12;;;;;;;;;8.00;8.00;;;;;24.61;58.81;100728.50;5073554;27;45266;-71
2022/08/23 07:48:38;;;;;;;;;5.75;5.75;;;;;24.87;58.02;100735.00;5073944;27;45372;-70
2022/08/23 07:51:05;;;;;;;;;5.75;5.75;;;;;25.05;57.85;100724.28;5074068;27;45442;-70
2022/08/23 07:53:31;;;;;;;;;4.00;4.00;;;;;25.27;57.53;100739.13;5073484;27;46367;-71
2022/08/23 07:55:57;;;;;;;;;4.75;4.75;;;;;25.46;57.04;100735.47;5073287;27;45298;-71
2022/08/23 07:58:24;;;;;;;;;5.75;5.75;;;;;25.56;56.39;100731.81;5073553;28;45447;-71
2022/08/23 08:00:51;;;;;;;;;5.25;5.25;;;;;25.57;56.10;100737.03;5073815;27;45342;-71
2022/08/23 08:03:17;;;;;;;;;5.75;5.75;;;;;25.59;56.72;100736.91;5073121;27;46515;-71
2022/08/23 08:05:42;;;;;;;;;3.75;3.75;;;;;25.50;56.04;100738.66;5073318;27;45356;-71
2022/08/23 08:08:08;;;;;;;;;4.50;4.50;;;;;25.33;57.10;100743.88;5073465;27;45421;-71
2022/08/23 08:10:39;;;;;;;;;6.25;6.25;;;;;25.21;56.67;100729.81;5072465;28;45316;-71
2022/08/23 08:13:05;;;;;;;;;6.75;6.75;;;;;25.18;57.17;100742.75;5073170;27;46294;-71
2022/08/23 08:15:31;;;;;;;;;6.00;6.00;;;;;25.18;57.28;100734.66;5073238;27;45599;-71
2022/08/23 08:17:57;;;;;;;;;5.75;5.75;;;;;25.22;57.35;100738.75;5074885;27;45299;-72
2022/08/23 08:20:23;;;;;;;;;7.00;6.50;;;;;25.26;57.04;100732.06;5077223;27;45213;-71
2022/08/23 08:22:49;;;;;;;;;5.50;5.50;;;;;25.36;56.89;100738.19;5076602;27;45531;-71
2022/08/23 08:25:14;;;;;;;;;6.50;6.50;;;;;25.38;56.80;100735.34;5076968;27;45479;-71
2022/08/23 08:27:40;;;;;;;;;6.25;6.25;;;;;25.46;56.53;100748.06;5077228;27;45444;-71
2022/08/23 08:30:08;;;;;;;;;7.50;7.50;;;;;25.56;56.26;100753.38;5077123;27;45513;-71
2022/08/23 08:32:35;;;;;;;;;6.75;5.50;;;;;25.62;56.49;100748.19;5076495;27;45416;-71
2022/08/23 08:35:01;;;;;;;;;7.00;7.00;;;;;25.78;56.25;100747.47;5076666;27;45397;-71
2022/08/23 08:37:27;;;;;;;;;4.50;4.50;;;;;25.94;55.77;100746.72;5076963;27;45342;-71
2022/08/23 08:39:53;;;;;;;;;6.75;6.75;;;;;26.10;55.71;100750.53;5076694;27;45205;-72
2022/08/23 08:42:50;;;;;;;;;9.50;9.00;;;;;26.31;54.69;100752.88;5076519;27;46234;-70
2022/08/23 08:45:31;;;;;;;;;6.25;6.25;;;;;26.47;54.47;100751.25;5075945;27;45354;-71
2022/08/23 08:48:05;;;;;;;;;6.50;6.50;;;;;26.59;53.92;100754.50;5076882;27;45362;-70
2022/08/23 08:50:38;;;;;;;;;7.75;7.75;;;;;26.63;53.16;100751.31;5077105;27;45376;-72
2022/08/23 08:53:12;;;;;;;;;8.50;8.50;;;;;26.75;53.98;100751.03;5076026;27;46344;-71
2022/08/23 08:55:43;;;;;;;;;8.00;8.00;;;;;26.81;53.33;100753.91;5076203;27;45492;-71
2022/08/23 08:58:17;;;;;;;;;7.00;7.00;;;;;26.88;53.39;100753.28;5076322;27;45236;-71
2022/08/23 09:00:42;;;;;;;;;7.00;7.00;;;;;26.90;53.02;100760.19;5076326;27;45326;-71
2022/08/23 09:03:19;;;;;;;;;8.00;8.00;;;;;26.86;52.97;100760.69;5075566;27;46360;-71
2022/08/23 09:06:26;;;;;;;;;7.00;7.00;;;;;26.87;53.07;100762.38;5075627;27;45380;-69
2022/08/23 09:08:52;;;;;;;;;7.00;7.00;;;;;26.87;53.27;100763.22;5076077;27;45314;-71
2022/08/23 09:11:36;;;;;;;;;5.75;5.75;;;;;26.96;52.84;100767.63;5074474;27;45539;-70
2022/08/23 09:14:28;;;;;;;;;5.50;5.50;;;;;27.24;52.53;100764.63;5075896;27;45502;-71
2022/08/23 09:17:02;;;;;;;;;6.25;6.25;;;;;27.41;52.01;100764.66;5075471;27;45321;-70
2022/08/23 09:19:29;;;;;;;;;6.75;6.75;;;;;27.45;51.45;100765.19;5076248;27;45342;-73
2022/08/23 09:21:57;;;;;;;;;6.75;6.75;;;;;27.48;51.38;100760.25;5076176;27;45484;-70
2022/08/23 09:24:23;;;;;;;;;5.50;5.50;;;;;27.55;51.36;100764.00;5075740;27;46066;-71
2022/08/23 09:26:50;;;;;;;;;7.00;7.00;;;;;27.57;51.26;100761.16;5075803;27;45410;-71
2022/08/23 09:29:25;;;;;;;;;5.50;5.50;;;;;27.65;51.33;100763.00;5073691;28;45330;-71
2022/08/23 09:31:54;;;;;;;;;5.50;5.50;;;;;27.82;50.68;100766.53;5076041;27;45292;-71
2022/08/23 09:34:29;;;;;;;;;7.25;7.25;;;;;27.88;50.18;100765.84;5075486;27;47053;-71
2022/08/23 09:37:06;;;;;;;;;6.00;6.00;;;;;27.82;50.32;100759.28;5075655;27;45335;-72
2022/08/23 09:39:35;;;;;;;;;6.75;6.75;;;;;27.83;50.25;100757.41;5075746;27;45279;-72
2022/08/23 09:42:00;;;;;;;;;5.25;5.25;;;;;27.77;50.38;100763.50;5074863;27;45576;-71
2022/08/23 09:44:39;;;;;;;;;6.50;6.50;;;;;27.72;50.17;100766.72;5075917;27;45440;-71
2022/08/23 09:47:14;;;;;;;;;10.00;10.00;;;;;27.72;50.08;100772.13;5073723;28;45255;-71
2022/08/23 09:49:41;;;;;;;;;7.75;7.75;;;;;27.82;50.05;100761.13;5075733;27;45422;-71
2022/08/23 09:52:09;;;;;;;;;6.75;6.75;;;;;27.99;49.89;100760.06;5076033;27;45433;-71
2022/08/23 09:54:36;;;;;;;;;6.50;6.50;;;;;28.17;49.28;100759.06;5075510;27;46139;-72
2022/08/23 09:57:08;;;;;;;;;4.00;4.00;;;;;28.31;48.99;100765.59;5076215;27;45243;-71
2022/08/23 09:59:45;;;;;;;;;4.25;4.25;;;;;28.34;48.62;100765.25;5076207;27;45282;-71
2022/08/23 10:02:26;;;;;;;;;4.50;4.50;;;;;28.30;49.06;100763.91;5075793;28;45596;-72
2022/08/23 10:04:56;;;;;;;;;4.75;4.75;;;;;28.33;48.63;100758.16;5075785;27;46862;-71
2022/08/23 10:07:33;;;;;;;;;4.00;4.00;;;;;28.39;49.18;100751.22;5073889;27;45338;-71
2022/08/23 10:10:12;;;;;;;;;6.25;6.25;;;;;28.45;48.15;100760.47;5075463;27;45361;-72
2022/08/23 10:12:38;;;;;;;;;7.00;7.00;;;;;28.49;49.16;100751.84;5075177;27;45457;-70
2022/08/23 10:15:04;;;;;;;;;7.25;7.25;;;;;28.58;48.72;100749.94;5074647;28;50257;-71
2022/08/23 10:17:47;;;;;;;;;6.75;6.75;;;;;28.72;48.94;100757.31;5074539;27;45405;-71
2022/08/23 10:20:30;;;;;;;;;5.50;5.50;;;;;28.84;48.00;100746.97;5074839;27;45512;-71
2022/08/23 10:23:07;;;;;;;;;5.00;5.00;;;;;28.96;47.88;100751.97;5075180;27;45306;-70
2022/08/23 10:25:52;;;;;;;;;6.00;6.00;;;;;28.96;47.89;100747.41;5074784;27;46570;-71
2022/08/23 10:31:50;;;;;;;;;5.00;5.00;;;;;29.12;47.04;100742.91;5065612;27;45336;-72
2022/08/23 10:34:33;;;;;;;;;2.50;2.50;;;;;29.21;47.20;100736.41;5073631;27;45403;-71
2022/08/23 10:37:02;;;;;;;;;2.25;2.25;;;;;29.25;46.98;100736.88;5074047;27;45994;-70
2022/08/23 10:39:29;;;;;;;;;5.75;5.75;;;;;29.21;46.81;100735.56;5074348;28;45319;-72
2022/08/23 10:42:02;;;;;;;;;3.00;3.00;;;;;29.24;46.66;100738.75;5073302;27;45417;-71
2022/08/23 10:44:49;;;;;;;;;1.00;1.00;;;;;29.37;46.52;100737.28;5074620;27;45251;-71
2022/08/23 10:47:52;;;;;;;;;3.00;3.00;;;;;29.46;46.17;100735.38;5074244;27;46495;-72
2022/08/23 10:50:19;;;;;;;;;2.00;2.00;;;;;29.56;46.48;100734.09;5074043;28;45401;-72
2022/08/23 10:53:01;;;;;;;;;3.00;3.00;;;;;29.71;45.98;100734.13;5074389;27;45297;-71
2022/08/23 10:55:42;;;;;;;;;2.00;2.00;;;;;29.78;45.87;100731.53;5075115;27;45387;-71
2022/08/23 10:58:14;;;;;;;;;1.25;1.25;;;;;29.80;45.66;100729.47;5072331;28;47636;-71
2022/08/23 11:00:41;;;;;;;;;3.00;3.00;;;;;29.90;45.66;100733.78;5072722;27;45347;-71
2022/08/23 11:03:26;;;;;;;;;2.00;2.00;;;;;30.04;45.08;100730.25;5075257;27;45357;-71
2022/08/23 11:06:40;;;;;;;;;1.00;1.00;;;;;30.16;44.82;100734.19;5074664;28;45194;-72
2022/08/23 11:09:18;;;;;;;;;2.00;2.00;;;;;30.40;44.45;100736.81;5074756;28;45440;-72
2022/08/23 11:12:22;;;;;;;;;2.25;2.25;;;;;30.61;43.71;100725.16;5074209;27;45263;-73
2022/08/23 11:15:06;;;;;;;;;1.00;1.00;;;;;30.66;43.56;100719.19;5073959;27;45427;-72
2022/08/23 11:17:56;;;;;;;;;2.00;2.00;;;;;30.84;43.50;100718.75;5072857;28;45252;-72
2022/08/23 11:20:49;;;;;;;;;2.75;2.75;;;;;31.11;43.26;100727.16;5074008;28;45327;-71
2022/08/23 11:23:29;;;;;;;;;4.75;4.75;;;;;31.41;42.61;100725.19;5073983;28;45438;-71
2022/08/23 11:25:55;;;;;;;;;1.25;1.25;;;;;31.57;41.94;100724.03;5074115;27;45191;-71
2022/08/23 11:28:26;;;;;;;;;2.00;2.00;;;;;31.68;41.86;100722.66;5074008;27;45414;-71
2022/08/23 11:31:07;;;;;;;;;2.00;2.00;;;;;31.73;40.71;100728.34;5073770;27;46867;-72
2022/08/23 11:33:42;;;;;;;;;1.00;1.00;;;;;31.78;41.27;100719.59;5073533;27;45371;-72
2022/08/23 11:36:07;;;;;;;;;1.25;1.25;;;;;31.93;40.77;100724.13;5074036;27;45354;-72
2022/08/23 11:38:42;;;;;;;;;2.25;2.25;;;;;32.12;40.45;100723.38;5073963;27;45301;-73
2022/08/23 11:41:12;;;;;;;;;1.00;1.00;;;;;32.29;40.54;100718.41;5073953;28;45838;-72
2022/08/23 11:43:40;;;;;;;;;1.00;1.00;;;;;32.37;39.80;100725.63;5074743;27;45251;-71
2022/08/23 11:46:14;;;;;;;;;1.00;1.00;;;;;32.38;40.12;100731.91;5073858;27;45319;-73
2022/08/23 11:48:48;;;;;;;;;2.00;2.00;;;;;32.38;39.25;100723.75;5074106;27;45512;-71